createdAt,value
2019-03-19T00:00:33.455Z,1012.95
2019-03-19T00:01:33.464Z,1012.98
2019-03-19T00:02:33.433Z,1012.99
2019-03-19T00:03:33.426Z,1012.91
2019-03-19T00:04:33.420Z,1012.97
2019-03-19T00:05:33.444Z,1012.94
2019-03-19T00:06:33.430Z,1012.98
2019-03-19T00:07:33.379Z,1012.92
2019-03-19T00:08:33.375Z,1012.93
2019-03-19T00:09:33.357Z,1012.95
2019-03-19T00:10:33.353Z,1012.91
2019-03-19T00:11:33.335Z,1012.91
2019-03-19T00:12:33.356Z,1012.92
2019-03-19T00:13:33.314Z,1012.91
2019-03-19T00:14:33.304Z,1012.93
2019-03-19T00:15:33.288Z,1012.98
2019-03-19T00:16:33.283Z,1012.93
2019-03-19T00:17:33.309Z,1012.99
2019-03-19T00:18:33.262Z,1012.93
2019-03-19T00:19:33.262Z,1012.95
2019-03-19T00:20:33.240Z,1012.96
2019-03-19T00:21:33.239Z,1012.99
2019-03-19T00:22:33.245Z,1012.93
2019-03-19T00:23:33.201Z,1013.01
2019-03-19T00:24:33.191Z,1013.00
2019-03-19T00:25:33.192Z,1012.96
2019-03-19T00:26:33.177Z,1012.96
2019-03-19T00:27:33.193Z,1012.97
2019-03-19T00:28:33.167Z,1013.02
2019-03-19T00:29:33.141Z,1013.04
2019-03-19T00:30:33.133Z,1013.09
2019-03-19T00:31:33.117Z,1013.14
2019-03-19T00:32:33.139Z,1013.03
2019-03-19T00:33:33.095Z,1013.10
2019-03-19T00:34:33.103Z,1013.11
2019-03-19T00:35:33.071Z,1013.12
2019-03-19T00:36:33.069Z,1013.05
2019-03-19T00:37:33.069Z,1013.15
2019-03-19T00:38:33.040Z,1013.07
2019-03-19T00:39:33.039Z,1013.09
2019-03-19T00:40:33.015Z,1013.10
2019-03-19T00:41:33.008Z,1013.09
2019-03-19T00:42:33.017Z,1013.11
2019-03-19T00:43:32.995Z,1013.05
2019-03-19T00:44:32.981Z,1013.03
2019-03-19T00:45:32.981Z,1013.12
2019-03-19T00:46:32.950Z,1013.05
2019-03-19T00:47:33.046Z,1013.06
2019-03-19T00:48:32.931Z,1013.00
2019-03-19T00:49:32.940Z,1012.97
2019-03-19T00:50:32.915Z,1012.99
2019-03-19T00:51:32.900Z,1013.02
2019-03-19T00:52:32.888Z,1012.99
2019-03-19T00:53:32.901Z,1012.95
2019-03-19T00:54:32.868Z,1012.97
2019-03-19T00:55:40.659Z,1013.09
2019-03-19T00:56:33.847Z,1013.04
2019-03-19T00:57:32.831Z,1012.99
2019-03-19T00:58:32.857Z,1012.98
2019-03-19T00:59:32.812Z,1012.98
2019-03-19T01:00:32.813Z,1012.97
2019-03-19T01:01:32.800Z,1012.96
2019-03-19T01:02:32.791Z,1012.97
2019-03-19T01:03:32.789Z,1012.94
2019-03-19T01:04:32.758Z,1012.97
2019-03-19T01:05:32.748Z,1013.01
2019-03-19T01:06:32.737Z,1012.96
2019-03-19T01:07:32.727Z,1012.94
2019-03-19T01:08:32.740Z,1012.98
2019-03-19T01:09:32.735Z,1012.98
2019-03-19T01:10:32.690Z,1013.01
2019-03-19T01:11:32.679Z,1013.04
2019-03-19T01:12:32.676Z,1012.97
2019-03-19T01:13:32.691Z,1013.02
2019-03-19T01:14:32.649Z,1013.02
2019-03-19T01:15:32.637Z,1013.00
2019-03-19T01:16:32.625Z,1013.01
2019-03-19T01:17:32.612Z,1013.05
2019-03-19T01:18:32.631Z,1013.01
2019-03-19T01:19:32.601Z,1013.06
2019-03-19T01:20:32.597Z,1013.12
2019-03-19T01:21:32.585Z,1013.10
2019-03-19T01:22:34.989Z,1013.06
2019-03-19T01:23:32.569Z,1013.08
2019-03-19T01:24:32.544Z,1013.10
2019-03-19T01:25:32.528Z,1013.09
2019-03-19T01:26:32.514Z,1013.15
2019-03-19T01:27:32.586Z,1013.16
2019-03-19T01:28:32.541Z,1013.15
2019-03-19T01:29:32.494Z,1013.19
2019-03-19T01:30:32.472Z,1013.17
2019-03-19T01:31:32.463Z,1013.21
2019-03-19T01:32:32.451Z,1013.22
2019-03-19T01:33:32.456Z,1013.21
2019-03-19T01:34:32.435Z,1013.24
2019-03-19T01:35:32.454Z,1013.27
2019-03-19T01:36:32.410Z,1013.26
2019-03-19T01:37:32.431Z,1013.28
2019-03-19T01:38:32.400Z,1013.29
2019-03-19T01:39:32.695Z,1013.32
2019-03-19T01:40:32.369Z,1013.35
2019-03-19T01:41:32.364Z,1013.45
2019-03-19T01:42:32.364Z,1013.47
2019-03-19T01:43:32.380Z,1013.40
2019-03-19T01:44:32.324Z,1013.47
2019-03-19T01:45:32.318Z,1013.47
2019-03-19T01:46:32.304Z,1013.49
2019-03-19T01:47:32.299Z,1013.50
2019-03-19T01:48:32.294Z,1013.46
2019-03-19T01:49:32.270Z,1013.39
2019-03-19T01:50:32.258Z,1013.50
2019-03-19T01:51:32.254Z,1013.49
2019-03-19T01:52:32.234Z,1013.42
2019-03-19T01:53:32.240Z,1013.47
2019-03-19T01:54:32.221Z,1013.45
2019-03-19T01:55:32.215Z,1013.46
2019-03-19T01:56:32.187Z,1013.55
2019-03-19T01:57:32.194Z,1013.53
2019-03-19T01:58:32.188Z,1013.50
2019-03-19T01:59:32.166Z,1013.58
2019-03-19T02:00:32.152Z,1013.55
2019-03-19T02:01:32.131Z,1013.51
2019-03-19T02:02:32.126Z,1013.57
2019-03-19T02:03:32.131Z,1013.56
2019-03-19T02:04:32.107Z,1013.57
2019-03-19T02:05:32.091Z,1013.63
2019-03-19T02:06:32.083Z,1013.59
2019-03-19T02:07:32.077Z,1013.65
2019-03-19T02:08:32.134Z,1013.64
2019-03-19T02:09:32.211Z,1013.64
2019-03-19T02:10:32.036Z,1013.63
2019-03-19T02:11:32.053Z,1013.58
2019-03-19T02:12:32.017Z,1013.68
2019-03-19T02:13:32.028Z,1013.67
2019-03-19T02:14:31.995Z,1013.68
2019-03-19T02:15:31.978Z,1013.65
2019-03-19T02:16:31.974Z,1013.68
2019-03-19T02:17:31.955Z,1013.71
2019-03-19T02:18:31.966Z,1013.69
2019-03-19T02:19:31.945Z,1013.79
2019-03-19T02:20:31.928Z,1013.71
2019-03-19T02:21:31.929Z,1013.67
2019-03-19T02:22:31.914Z,1013.72
2019-03-19T02:23:31.917Z,1013.66
2019-03-19T02:24:31.884Z,1013.69
2019-03-19T02:25:31.887Z,1013.80
2019-03-19T02:26:31.880Z,1013.80
2019-03-19T02:27:31.855Z,1013.73
2019-03-19T02:28:31.865Z,1013.84
2019-03-19T02:29:31.833Z,1013.81
2019-03-19T02:30:31.816Z,1013.85
2019-03-19T02:31:31.815Z,1013.85
2019-03-19T02:32:31.787Z,1013.85
2019-03-19T02:33:31.807Z,1013.82
2019-03-19T02:34:31.771Z,1013.89
2019-03-19T02:35:31.781Z,1013.90
2019-03-19T02:36:31.755Z,1013.86
2019-03-19T02:37:31.744Z,1013.88
2019-03-19T02:38:31.766Z,1013.89
2019-03-19T02:39:31.829Z,1013.98
2019-03-19T02:40:31.715Z,1013.98
2019-03-19T02:41:31.694Z,1013.96
2019-03-19T02:42:31.698Z,1013.98
2019-03-19T02:43:31.711Z,1013.93
2019-03-19T02:44:31.675Z,1013.99
2019-03-19T02:45:31.666Z,1013.99
2019-03-19T02:46:31.640Z,1013.96
2019-03-19T02:47:31.636Z,1014.01
2019-03-19T02:48:31.625Z,1013.94
2019-03-19T02:49:31.617Z,1013.96
2019-03-19T02:50:31.610Z,1013.94
2019-03-19T02:51:31.585Z,1013.99
2019-03-19T02:52:31.574Z,1013.99
2019-03-19T02:53:31.571Z,1013.98
2019-03-19T02:54:31.572Z,1014.03
2019-03-19T02:55:31.543Z,1014.07
2019-03-19T02:56:33.462Z,1014.12
2019-03-19T02:57:31.544Z,1014.08
2019-03-19T02:58:31.513Z,1014.12
2019-03-19T02:59:31.522Z,1014.14
2019-03-19T03:00:31.501Z,1014.16
2019-03-19T03:01:31.477Z,1014.14
2019-03-19T03:02:31.488Z,1014.18
2019-03-19T03:03:31.455Z,1014.14
2019-03-19T03:04:31.462Z,1014.14
2019-03-19T03:05:31.565Z,1014.16
2019-03-19T03:06:31.430Z,1014.13
2019-03-19T03:07:31.413Z,1014.12
2019-03-19T03:08:31.429Z,1014.19
2019-03-19T03:09:31.423Z,1014.13
2019-03-19T03:10:31.385Z,1014.16
2019-03-19T03:11:31.366Z,1014.17
2019-03-19T03:12:31.372Z,1014.17
2019-03-19T03:13:31.351Z,1014.18
2019-03-19T03:14:31.371Z,1014.19
2019-03-19T03:15:31.322Z,1014.22
2019-03-19T03:16:31.308Z,1014.22
2019-03-19T03:17:31.320Z,1014.26
2019-03-19T03:18:31.289Z,1014.25
2019-03-19T03:19:31.335Z,1014.25
2019-03-19T03:20:31.280Z,1014.28
2019-03-19T03:21:34.502Z,1014.25
2019-03-19T03:22:31.240Z,1014.20
2019-03-19T03:23:31.232Z,1014.27
2019-03-19T03:24:31.244Z,1014.23
2019-03-19T03:25:31.232Z,1014.27
2019-03-19T03:26:31.203Z,1014.26
2019-03-19T03:27:31.210Z,1014.23
2019-03-19T03:28:31.188Z,1014.21
2019-03-19T03:29:31.185Z,1014.22
2019-03-19T03:30:31.173Z,1014.23
2019-03-19T03:31:31.144Z,1014.27
2019-03-19T03:32:31.135Z,1014.32
2019-03-19T03:33:31.222Z,1014.36
2019-03-19T03:34:31.129Z,1014.32
2019-03-19T03:35:31.102Z,1014.36
2019-03-19T03:36:31.102Z,1014.32
2019-03-19T03:37:31.076Z,1014.32
2019-03-19T03:38:31.066Z,1014.34
2019-03-19T03:39:31.075Z,1014.37
2019-03-19T03:40:31.046Z,1014.33
2019-03-19T03:41:31.038Z,1014.43
2019-03-19T03:42:31.021Z,1014.43
2019-03-19T03:43:31.041Z,1014.39
2019-03-19T03:44:31.050Z,1014.42
2019-03-19T03:45:30.999Z,1014.40
2019-03-19T03:46:30.977Z,1014.45
2019-03-19T03:47:30.970Z,1014.43
2019-03-19T03:48:30.961Z,1014.47
2019-03-19T03:49:30.966Z,1014.49
2019-03-19T03:50:30.931Z,1014.49
2019-03-19T03:51:30.924Z,1014.53
2019-03-19T03:52:30.912Z,1014.50
2019-03-19T03:53:30.911Z,1014.61
2019-03-19T03:54:30.903Z,1014.57
2019-03-19T03:55:31.334Z,1014.57
2019-03-19T03:56:30.864Z,1014.65
2019-03-19T03:57:30.880Z,1014.65
2019-03-19T03:58:30.918Z,1014.69
2019-03-19T03:59:30.861Z,1014.68
2019-03-19T04:00:30.828Z,1014.71
2019-03-19T04:01:30.826Z,1014.73
2019-03-19T04:02:30.801Z,1014.77
2019-03-19T04:03:30.836Z,1014.78
2019-03-19T04:04:30.802Z,1014.81
2019-03-19T04:05:30.797Z,1014.92
2019-03-19T04:06:30.778Z,1014.83
2019-03-19T04:07:30.746Z,1014.90
2019-03-19T04:08:30.733Z,1014.91
2019-03-19T04:09:30.775Z,1014.94
2019-03-19T04:10:30.724Z,1014.95
2019-03-19T04:11:30.703Z,1014.96
2019-03-19T04:12:30.693Z,1014.94
2019-03-19T04:13:30.679Z,1014.98
2019-03-19T04:14:30.674Z,1014.98
2019-03-19T04:15:30.669Z,1014.97
2019-03-19T04:16:30.645Z,1014.98
2019-03-19T04:17:30.638Z,1015.02
2019-03-19T04:18:30.643Z,1015.02
2019-03-19T04:19:30.625Z,1015.04
2019-03-19T04:20:30.626Z,1015.04
2019-03-19T04:21:30.598Z,1015.07
2019-03-19T04:22:30.600Z,1015.09
2019-03-19T04:23:30.580Z,1015.09
2019-03-19T04:24:30.560Z,1015.09
2019-03-19T04:25:30.568Z,1015.12
2019-03-19T04:26:30.538Z,1015.12
2019-03-19T04:27:30.532Z,1015.18
2019-03-19T04:28:30.524Z,1015.28
2019-03-19T04:29:30.510Z,1015.24
2019-03-19T04:30:30.518Z,1015.30
2019-03-19T04:31:30.485Z,1015.29
2019-03-19T04:32:30.476Z,1015.27
2019-03-19T04:33:30.476Z,1015.21
2019-03-19T04:34:30.461Z,1015.24
2019-03-19T04:35:30.456Z,1015.19
2019-03-19T04:36:30.438Z,1015.27
2019-03-19T04:37:30.420Z,1015.21
2019-03-19T04:38:30.420Z,1015.22
2019-03-19T04:39:30.400Z,1015.22
2019-03-19T04:40:30.428Z,1015.23
2019-03-19T04:41:30.383Z,1015.25
2019-03-19T04:42:30.363Z,1015.24
2019-03-19T04:43:30.362Z,1015.18
2019-03-19T04:44:30.361Z,1015.21
2019-03-19T04:45:30.326Z,1015.29
2019-03-19T04:46:30.340Z,1015.27
2019-03-19T04:47:30.311Z,1015.29
2019-03-19T04:48:30.301Z,1015.27
2019-03-19T04:49:30.296Z,1015.32
2019-03-19T04:50:30.290Z,1015.32
2019-03-19T04:51:30.306Z,1015.31
2019-03-19T04:52:30.267Z,1015.34
2019-03-19T04:53:30.246Z,1015.32
2019-03-19T04:54:30.240Z,1015.32
2019-03-19T04:55:30.221Z,1015.33
2019-03-19T04:56:30.223Z,1015.31
2019-03-19T04:57:30.204Z,1015.30
2019-03-19T04:58:30.186Z,1015.36
2019-03-19T04:59:30.178Z,1015.38
2019-03-19T05:00:30.159Z,1015.38
2019-03-19T05:01:30.180Z,1015.41
2019-03-19T05:02:30.147Z,1015.37
2019-03-19T05:03:30.133Z,1015.38
2019-03-19T05:04:30.223Z,1015.41
2019-03-19T05:05:30.113Z,1015.41
2019-03-19T05:06:30.127Z,1015.43
2019-03-19T05:07:30.108Z,1015.47
2019-03-19T05:08:30.078Z,1015.49
2019-03-19T05:09:30.067Z,1015.49
2019-03-19T05:10:30.059Z,1015.61
2019-03-19T05:11:30.083Z,1015.59
2019-03-19T05:12:30.033Z,1015.64
2019-03-19T05:13:30.033Z,1015.71
2019-03-19T05:14:30.021Z,1015.72
2019-03-19T05:15:29.998Z,1015.74
2019-03-19T05:16:30.001Z,1015.73
2019-03-19T05:17:30.001Z,1015.78
2019-03-19T05:18:31.382Z,1015.79
2019-03-19T05:19:29.966Z,1015.79
2019-03-19T05:20:29.948Z,1015.84
2019-03-19T05:21:29.936Z,1015.84
2019-03-19T05:22:29.950Z,1015.88
2019-03-19T05:23:29.913Z,1015.93
2019-03-19T05:24:29.907Z,1015.98
2019-03-19T05:25:29.909Z,1015.96
2019-03-19T05:26:29.881Z,1015.95
2019-03-19T05:27:37.369Z,1015.99
2019-03-19T05:28:30.877Z,1016.00
2019-03-19T05:29:29.853Z,1015.99
2019-03-19T05:30:29.847Z,1016.04
2019-03-19T05:31:29.825Z,1016.05
2019-03-19T05:32:30.818Z,1016.07
2019-03-19T05:33:29.802Z,1016.05
2019-03-19T05:34:29.800Z,1016.02
2019-03-19T05:35:29.789Z,1016.05
2019-03-19T05:36:29.773Z,1016.07
2019-03-19T05:37:29.781Z,1016.06
2019-03-19T05:38:29.746Z,1016.09
2019-03-19T05:39:29.740Z,1016.04
2019-03-19T05:40:29.744Z,1016.09
2019-03-19T05:41:29.726Z,1016.09
2019-03-19T05:42:29.733Z,1016.10
2019-03-19T05:43:29.695Z,1016.18
2019-03-19T05:44:29.683Z,1016.15
2019-03-19T05:45:29.676Z,1016.18
2019-03-19T05:46:29.670Z,1016.18
2019-03-19T05:47:36.975Z,1016.22
2019-03-19T05:48:30.709Z,1016.19
2019-03-19T05:49:29.619Z,1016.21
2019-03-19T05:50:29.619Z,1016.27
2019-03-19T05:51:29.662Z,1016.24
2019-03-19T05:52:29.627Z,1016.22
2019-03-19T05:53:29.581Z,1016.25
2019-03-19T05:54:29.576Z,1016.25
2019-03-19T05:55:29.559Z,1016.27
2019-03-19T05:56:29.548Z,1016.26
2019-03-19T05:57:29.543Z,1016.28
2019-03-19T05:58:29.570Z,1016.30
2019-03-19T05:59:29.516Z,1016.29
2019-03-19T06:00:29.507Z,1016.36
2019-03-19T06:01:29.499Z,1016.34
2019-03-19T06:02:29.478Z,1016.34
2019-03-19T06:03:29.496Z,1016.31
2019-03-19T06:04:29.466Z,1016.35
2019-03-19T06:05:29.481Z,1016.39
2019-03-19T06:06:29.435Z,1016.43
2019-03-19T06:07:29.429Z,1016.41
2019-03-19T06:08:29.445Z,1016.45
2019-03-19T06:09:29.408Z,1016.48
2019-03-19T06:10:29.391Z,1016.47
2019-03-19T06:11:29.390Z,1016.48
2019-03-19T06:12:29.370Z,1016.51
2019-03-19T06:13:29.385Z,1016.52
2019-03-19T06:14:29.350Z,1016.49
2019-03-19T06:15:29.348Z,1016.56
2019-03-19T06:16:29.327Z,1016.53
2019-03-19T06:17:29.314Z,1016.53
2019-03-19T06:18:35.002Z,1016.55
2019-03-19T06:19:30.310Z,1016.53
2019-03-19T06:20:29.290Z,1016.60
2019-03-19T06:21:29.274Z,1016.68
2019-03-19T06:22:29.256Z,1016.68
2019-03-19T06:23:29.309Z,1016.70
2019-03-19T06:24:29.238Z,1016.69
2019-03-19T06:25:29.241Z,1016.66
2019-03-19T06:26:29.227Z,1016.72
2019-03-19T06:27:29.208Z,1016.73
2019-03-19T06:28:29.228Z,1016.71
2019-03-19T06:29:29.181Z,1016.76
2019-03-19T06:30:29.193Z,1016.75
2019-03-19T06:31:29.171Z,1016.73
2019-03-19T06:32:29.152Z,1016.78
2019-03-19T06:33:29.180Z,1016.80
2019-03-19T06:34:29.129Z,1016.80
2019-03-19T06:35:29.115Z,1016.75
2019-03-19T06:36:29.110Z,1016.71
2019-03-19T06:37:29.114Z,1016.69
2019-03-19T06:38:29.094Z,1016.69
2019-03-19T06:39:29.104Z,1016.75
2019-03-19T06:40:29.064Z,1016.73
2019-03-19T06:41:29.126Z,1016.73
2019-03-19T06:42:29.030Z,1016.74
2019-03-19T06:43:29.026Z,1016.73
2019-03-19T06:44:29.050Z,1016.73
2019-03-19T06:45:29.002Z,1016.75
2019-03-19T06:46:28.996Z,1016.74
2019-03-19T06:47:28.979Z,1016.75
2019-03-19T06:48:28.975Z,1016.74
2019-03-19T06:49:29.026Z,1016.75
2019-03-19T06:50:28.974Z,1016.75
2019-03-19T06:51:28.938Z,1016.79
2019-03-19T06:52:28.922Z,1016.81
2019-03-19T06:53:28.914Z,1016.78
2019-03-19T06:54:28.982Z,1016.79
2019-03-19T06:55:28.930Z,1016.84
2019-03-19T06:56:28.914Z,1016.89
2019-03-19T06:57:38.882Z,1016.88
2019-03-19T06:58:29.903Z,1016.83
2019-03-19T06:59:28.892Z,1016.82
2019-03-19T07:00:28.852Z,1016.85
2019-03-19T07:01:28.905Z,1016.86
2019-03-19T07:02:28.888Z,1016.81
2019-03-19T07:03:28.808Z,1016.83
2019-03-19T07:04:28.829Z,1016.87
2019-03-19T07:05:28.812Z,1016.90
2019-03-19T07:06:28.816Z,1016.90
2019-03-19T07:07:28.785Z,1016.89
2019-03-19T07:08:28.753Z,1016.94
2019-03-19T07:09:28.778Z,1016.97
2019-03-19T07:10:28.732Z,1016.94
2019-03-19T07:11:28.746Z,1016.99
2019-03-19T07:12:28.722Z,1017.02
2019-03-19T07:13:28.700Z,1017.03
2019-03-19T07:14:28.717Z,1017.06
2019-03-19T07:15:28.703Z,1017.02
2019-03-19T07:16:28.686Z,1017.05
2019-03-19T07:17:28.689Z,1017.00
2019-03-19T07:18:28.671Z,1017.01
2019-03-19T07:19:28.714Z,1017.01
2019-03-19T07:20:28.623Z,1017.05
2019-03-19T07:21:28.614Z,1017.07
2019-03-19T07:22:28.625Z,1017.08
2019-03-19T07:23:28.671Z,1017.10
2019-03-19T07:24:28.601Z,1017.07
2019-03-19T07:25:28.603Z,1017.12
2019-03-19T07:26:28.552Z,1017.06
2019-03-19T07:27:28.570Z,1017.02
2019-03-19T07:28:28.581Z,1017.13
2019-03-19T07:29:28.662Z,1017.09
2019-03-19T07:30:28.534Z,1017.13
2019-03-19T07:31:31.232Z,1017.17
2019-03-19T07:32:28.495Z,1017.15
2019-03-19T07:33:28.521Z,1017.14
2019-03-19T07:34:28.471Z,1017.21
2019-03-19T07:35:28.476Z,1017.25
2019-03-19T07:36:28.449Z,1017.25
2019-03-19T07:37:28.447Z,1017.25
2019-03-19T07:38:28.422Z,1017.26
2019-03-19T07:39:28.411Z,1017.34
2019-03-19T07:40:28.441Z,1017.35
2019-03-19T07:41:28.395Z,1017.32
2019-03-19T07:42:28.382Z,1017.33
2019-03-19T07:43:28.374Z,1017.33
2019-03-19T07:44:28.361Z,1017.36
2019-03-19T07:45:28.377Z,1017.38
2019-03-19T07:46:28.346Z,1017.36
2019-03-19T07:47:28.341Z,1017.37
2019-03-19T07:48:28.314Z,1017.38
2019-03-19T07:49:28.304Z,1017.43
2019-03-19T07:50:28.311Z,1017.43
2019-03-19T07:51:28.297Z,1017.44
2019-03-19T07:52:28.337Z,1017.49
2019-03-19T07:53:28.259Z,1017.50
2019-03-19T07:54:28.249Z,1017.51
2019-03-19T07:55:28.274Z,1017.50
2019-03-19T07:56:28.263Z,1017.54
2019-03-19T07:57:29.590Z,1017.49
2019-03-19T07:58:40.590Z,1017.54
2019-03-19T07:59:29.195Z,1017.62
2019-03-19T08:00:28.203Z,1017.58
2019-03-19T08:01:28.195Z,1017.61
2019-03-19T08:02:28.160Z,1017.65
2019-03-19T08:03:28.257Z,1017.67
2019-03-19T08:04:28.197Z,1017.69
2019-03-19T08:05:33.061Z,1017.69
2019-03-19T08:06:29.113Z,1017.72
2019-03-19T08:07:28.111Z,1017.73
2019-03-19T08:08:28.099Z,1017.76
2019-03-19T08:09:28.132Z,1017.75
2019-03-19T08:10:28.096Z,1017.79
2019-03-19T08:11:28.244Z,1017.82
2019-03-19T08:12:28.117Z,1017.83
2019-03-19T08:13:28.225Z,1017.85
2019-03-19T08:14:28.072Z,1017.77
2019-03-19T08:15:28.050Z,1017.73
2019-03-19T08:16:28.177Z,1017.74
2019-03-19T08:17:27.998Z,1017.82
2019-03-19T08:18:27.983Z,1017.83
2019-03-19T08:19:27.974Z,1017.84
2019-03-19T08:20:27.987Z,1017.83
2019-03-19T08:21:27.962Z,1017.83
2019-03-19T08:22:27.940Z,1017.83
2019-03-19T08:23:27.927Z,1017.83
2019-03-19T08:24:27.922Z,1017.84
2019-03-19T08:25:27.930Z,1017.87
2019-03-19T08:26:27.913Z,1017.89
2019-03-19T08:27:27.895Z,1017.91
2019-03-19T08:28:27.873Z,1017.92
2019-03-19T08:29:27.875Z,1017.88
2019-03-19T08:30:27.849Z,1017.98
2019-03-19T08:31:27.846Z,1017.98
2019-03-19T08:32:27.845Z,1017.92
2019-03-19T08:33:27.865Z,1017.95
2019-03-19T08:34:27.806Z,1017.99
2019-03-19T08:35:27.792Z,1018.01
2019-03-19T08:36:27.816Z,1018.03
2019-03-19T08:37:27.790Z,1018.08
2019-03-19T08:38:27.766Z,1018.11
2019-03-19T08:39:27.748Z,1018.10
2019-03-19T08:40:27.734Z,1018.09
2019-03-19T08:41:27.804Z,1018.10
2019-03-19T08:42:27.716Z,1018.12
2019-03-19T08:43:27.720Z,1018.13
2019-03-19T08:44:28.171Z,1018.13
2019-03-19T08:45:27.690Z,1018.12
2019-03-19T08:46:27.707Z,1018.13
2019-03-19T08:47:27.657Z,1018.16
2019-03-19T08:48:27.657Z,1018.11
2019-03-19T08:49:27.691Z,1018.14
2019-03-19T08:50:27.618Z,1018.13
2019-03-19T08:51:27.631Z,1018.15
2019-03-19T08:52:27.671Z,1018.14
2019-03-19T08:53:27.594Z,1018.13
2019-03-19T08:54:27.582Z,1018.15
2019-03-19T08:55:27.573Z,1018.20
2019-03-19T08:56:27.566Z,1018.11
2019-03-19T08:57:27.551Z,1018.09
2019-03-19T08:58:27.531Z,1018.14
2019-03-19T08:59:27.529Z,1018.13
2019-03-19T09:00:28.319Z,1018.10
2019-03-19T09:01:27.514Z,1018.14
2019-03-19T09:02:27.488Z,1018.14
2019-03-19T09:03:27.478Z,1018.11
2019-03-19T09:04:27.476Z,1018.13
2019-03-19T09:05:27.462Z,1018.09
2019-03-19T09:06:27.474Z,1018.12
2019-03-19T09:07:27.428Z,1018.11
2019-03-19T09:08:27.426Z,1018.12
2019-03-19T09:09:27.407Z,1018.16
2019-03-19T09:10:27.410Z,1018.17
2019-03-19T09:11:27.398Z,1018.18
2019-03-19T09:12:27.384Z,1018.22
2019-03-19T09:13:27.366Z,1018.19
2019-03-19T09:14:27.349Z,1018.23
2019-03-19T09:15:27.335Z,1018.23
2019-03-19T09:16:27.335Z,1018.17
2019-03-19T09:17:27.339Z,1018.21
2019-03-19T09:18:27.304Z,1018.21
2019-03-19T09:19:27.300Z,1018.29
2019-03-19T09:20:27.282Z,1018.22
2019-03-19T09:21:27.281Z,1018.23
2019-03-19T09:22:29.906Z,1018.30
2019-03-19T09:23:27.249Z,1018.29
2019-03-19T09:24:27.238Z,1018.23
2019-03-19T09:25:27.252Z,1018.32
2019-03-19T09:26:27.215Z,1018.31
2019-03-19T09:27:27.220Z,1018.28
2019-03-19T09:28:27.194Z,1018.24
2019-03-19T09:29:27.175Z,1018.31
2019-03-19T09:30:27.167Z,1018.28
2019-03-19T09:31:27.158Z,1018.31
2019-03-19T09:32:27.187Z,1018.38
2019-03-19T09:33:27.145Z,1018.33
2019-03-19T09:34:27.126Z,1018.32
2019-03-19T09:35:27.157Z,1018.34
2019-03-19T09:36:27.114Z,1018.33
2019-03-19T09:37:27.091Z,1018.32
2019-03-19T09:38:27.099Z,1018.36
2019-03-19T09:39:27.085Z,1018.33
2019-03-19T09:40:27.058Z,1018.39
2019-03-19T09:41:27.047Z,1018.38
2019-03-19T09:42:27.036Z,1018.38
2019-03-19T09:43:27.053Z,1018.40
2019-03-19T09:44:27.022Z,1018.38
2019-03-19T09:45:27.049Z,1018.37
2019-03-19T09:46:27.001Z,1018.40
2019-03-19T09:47:26.975Z,1018.35
2019-03-19T09:48:28.315Z,1018.37
2019-03-19T09:49:26.958Z,1018.30
2019-03-19T09:50:26.952Z,1018.37
2019-03-19T09:51:26.941Z,1018.39
2019-03-19T09:52:26.931Z,1018.36
2019-03-19T09:53:26.933Z,1018.38
2019-03-19T09:54:26.895Z,1018.37
2019-03-19T09:55:26.890Z,1018.37
2019-03-19T09:56:26.882Z,1018.32
2019-03-19T09:57:26.867Z,1018.35
2019-03-19T09:58:26.907Z,1018.38
2019-03-19T09:59:27.490Z,1018.38
2019-03-19T10:00:26.833Z,1018.43
2019-03-19T10:01:26.836Z,1018.43
2019-03-19T10:02:26.841Z,1018.46
2019-03-19T10:03:26.824Z,1018.41
2019-03-19T10:04:26.861Z,1018.40
2019-03-19T10:05:26.772Z,1018.43
2019-03-19T10:06:26.776Z,1018.44
2019-03-19T10:07:26.765Z,1018.47
2019-03-19T10:08:26.756Z,1018.51
2019-03-19T10:09:26.727Z,1018.55
2019-03-19T10:10:26.769Z,1018.52
2019-03-19T10:11:26.731Z,1018.50
2019-03-19T10:12:26.711Z,1018.50
2019-03-19T10:13:26.750Z,1018.55
2019-03-19T10:14:26.684Z,1018.52
2019-03-19T10:15:26.675Z,1018.57
2019-03-19T10:16:26.678Z,1018.57
2019-03-19T10:17:26.638Z,1018.53
2019-03-19T10:18:26.643Z,1018.56
2019-03-19T10:19:26.652Z,1018.54
2019-03-19T10:20:26.606Z,1018.56
2019-03-19T10:21:26.591Z,1018.55
2019-03-19T10:22:26.592Z,1018.61
2019-03-19T10:23:26.575Z,1018.67
2019-03-19T10:24:26.593Z,1018.68
2019-03-19T10:25:26.554Z,1018.68
2019-03-19T10:26:26.540Z,1018.77
2019-03-19T10:27:26.528Z,1018.81
2019-03-19T10:28:26.517Z,1018.73
2019-03-19T10:29:26.531Z,1018.74
2019-03-19T10:30:26.500Z,1019.15
2019-03-19T10:31:26.491Z,1019.21
2019-03-19T10:32:26.474Z,1019.16
2019-03-19T10:33:26.471Z,1018.74
2019-03-19T10:34:26.517Z,1018.90
2019-03-19T10:35:26.443Z,1018.59
2019-03-19T10:36:26.430Z,1018.90
2019-03-19T10:37:26.423Z,1018.71
2019-03-19T10:38:26.437Z,1019.07
2019-03-19T10:39:26.415Z,1018.80
2019-03-19T10:40:26.388Z,1018.62
2019-03-19T10:41:26.373Z,1019.03
2019-03-19T10:42:26.358Z,1018.62
2019-03-19T10:43:26.353Z,1018.56
2019-03-19T10:44:26.384Z,1019.17
2019-03-19T10:45:26.352Z,1018.83
2019-03-19T10:46:26.363Z,1018.64
2019-03-19T10:47:26.305Z,1018.71
2019-03-19T10:48:26.296Z,1018.61
2019-03-19T10:49:26.290Z,1019.18
2019-03-19T10:50:26.295Z,1019.01
2019-03-19T10:51:26.264Z,1019.20
2019-03-19T10:52:26.273Z,1019.20
2019-03-19T10:53:26.238Z,1019.18
2019-03-19T10:54:26.233Z,1019.17
2019-03-19T10:55:26.309Z,1019.01
2019-03-19T10:56:26.220Z,1018.70
2019-03-19T10:57:26.206Z,1018.71
2019-03-19T10:58:26.184Z,1018.72
2019-03-19T10:59:26.273Z,1018.70
2019-03-19T11:00:26.228Z,1018.67
2019-03-19T11:01:26.155Z,1018.73
2019-03-19T11:02:26.142Z,1018.72
2019-03-19T11:03:26.153Z,1018.75
2019-03-19T11:04:26.125Z,1018.73
2019-03-19T11:05:26.142Z,1019.21
2019-03-19T11:06:26.139Z,1019.21
2019-03-19T11:07:26.109Z,1018.81
2019-03-19T11:08:26.083Z,1018.81
2019-03-19T11:09:26.083Z,1018.77
2019-03-19T11:10:26.098Z,1018.97
2019-03-19T11:11:26.131Z,1019.23
2019-03-19T11:12:26.025Z,1019.22
2019-03-19T11:13:26.052Z,1019.21
2019-03-19T11:14:26.017Z,1019.24
2019-03-19T11:15:26.034Z,1019.23
2019-03-19T11:16:25.982Z,1018.88
2019-03-19T11:17:28.364Z,1018.79
2019-03-19T11:18:25.987Z,1018.75
2019-03-19T11:19:25.952Z,1018.79
2019-03-19T11:20:25.972Z,1018.72
2019-03-19T11:21:25.939Z,1018.85
2019-03-19T11:22:25.938Z,1018.83
2019-03-19T11:23:25.906Z,1018.87
2019-03-19T11:24:25.904Z,1018.93
2019-03-19T11:25:25.886Z,1019.30
2019-03-19T11:26:25.952Z,1019.32
2019-03-19T11:27:25.872Z,1019.33
2019-03-19T11:28:25.849Z,1019.28
2019-03-19T11:29:25.864Z,1019.29
2019-03-19T11:30:25.853Z,1019.32
2019-03-19T11:31:25.844Z,1019.29
2019-03-19T11:32:25.811Z,1019.17
2019-03-19T11:33:25.833Z,1018.82
2019-03-19T11:34:25.788Z,1019.26
2019-03-19T11:35:25.779Z,1019.22
2019-03-19T11:36:25.786Z,1019.20
2019-03-19T11:37:25.763Z,1019.17
2019-03-19T11:38:25.766Z,1019.26
2019-03-19T11:39:25.737Z,1019.23
2019-03-19T11:40:26.317Z,1019.22
2019-03-19T11:41:25.755Z,1019.25
2019-03-19T11:42:25.727Z,1018.89
2019-03-19T11:43:25.700Z,1019.29
2019-03-19T11:44:25.687Z,1019.22
2019-03-19T11:45:25.676Z,1018.95
2019-03-19T11:46:25.695Z,1018.91
2019-03-19T11:47:25.666Z,1019.08
2019-03-19T11:48:25.650Z,1018.90
2019-03-19T11:49:25.641Z,1018.87
2019-03-19T11:50:25.619Z,1018.88
2019-03-19T11:51:25.604Z,1018.92
2019-03-19T11:52:25.643Z,1018.91
2019-03-19T11:53:25.588Z,1018.90
2019-03-19T11:54:25.577Z,1018.96
2019-03-19T11:55:25.559Z,1018.95
2019-03-19T11:56:25.552Z,1018.94
2019-03-19T11:57:25.559Z,1019.25
2019-03-19T11:58:25.544Z,1019.22
2019-03-19T11:59:25.515Z,1019.08
2019-03-19T12:00:25.508Z,1019.03
2019-03-19T12:01:25.502Z,1019.10
2019-03-19T12:02:26.402Z,1019.20
2019-03-19T12:03:25.473Z,1019.04
2019-03-19T12:04:25.461Z,1019.06
2019-03-19T12:05:25.448Z,1019.06